Time;durP1;ratioP1;P1;durP2;ratioP2;P2;SDS_P1;SDS_P2;PMS_P1;PMS_P2;Temp;Humidity;BMP_temperature;BMP_pressure;BME280_temperature;BME280_humidity;BME280_pressure;Samples;Min_cycle;Max_cycle;Signal;HPM_P1;HPM_P2
2023/07/22 00:02:30;;;;;;;3.33;2.80;;;21.40;62.50;;;;;;10364326;28;20116;-56
2023/07/22 00:07:31;;;;;;;5.55;3.30;;;21.40;62.60;;;;;;10369916;28;20389;-56
2023/07/22 00:12:31;;;;;;;5.18;3.65;;;21.40;62.50;;;;;;10403395;28;20036;-55
2023/07/22 00:17:32;;;;;;;3.60;2.80;;;21.40;62.50;;;;;;10370012;28;20485;-56
2023/07/22 00:22:33;;;;;;;5.53;3.25;;;21.40;62.50;;;;;;10363746;28;20053;-56
2023/07/22 00:27:33;;;;;;;4.45;3.05;;;21.30;62.40;;;;;;10363518;28;20293;-55
2023/07/22 00:32:37;;;;;;;4.20;2.80;;;21.40;62.40;;;;;;10363337;28;20109;-55
2023/07/22 00:37:37;;;;;;;4.72;3.13;;;21.40;62.50;;;;;;10363295;28;20026;-57
2023/07/22 00:42:41;;;;;;;4.30;3.10;;;21.40;62.50;;;;;;10362913;28;20041;-55
2023/07/22 00:47:43;;;;;;;4.30;3.30;;;21.40;62.50;;;;;;10365338;28;20030;-56
2023/07/22 00:52:43;;;;;;;4.47;3.50;;;21.30;62.30;;;;;;10388139;28;20014;-56
2023/07/22 00:57:44;;;;;;;4.35;3.53;;;21.30;62.40;;;;;;10362308;28;20061;-56
2023/07/22 01:02:45;;;;;;;4.70;3.20;;;21.30;62.30;;;;;;10362444;28;20056;-56
2023/07/22 01:07:46;;;;;;;7.13;3.72;;;21.30;62.30;;;;;;10369503;28;20030;-56
2023/07/22 01:12:47;;;;;;;5.70;3.05;;;21.30;62.30;;;;;;10402845;28;20384;-56
2023/07/22 01:17:48;;;;;;;4.88;3.75;;;21.30;62.30;;;;;;10365742;28;20022;-56
2023/07/22 01:22:53;;;;;;;4.03;3.08;;;21.30;62.30;;;;;;10360116;28;20472;-56
2023/07/22 01:27:54;;;;;;;5.25;3.55;;;21.30;62.90;;;;;;10361391;28;20038;-56
2023/07/22 01:32:55;;;;;;;3.90;2.75;;;21.30;62.40;;;;;;10359690;28;20457;-56
2023/07/22 01:37:55;;;;;;;3.85;2.88;;;21.30;62.40;;;;;;10361567;28;20018;-55
2023/07/22 01:42:56;;;;;;;4.20;3.05;;;21.30;62.40;;;;;;10360751;28;20184;-54
2023/07/22 01:47:57;;;;;;;4.97;3.58;;;21.30;63.00;;;;;;10360780;28;20492;-57
2023/07/22 01:52:57;;;;;;;4.40;3.47;;;21.30;62.50;;;;;;10366319;28;20533;-57
2023/07/22 01:57:58;;;;;;;4.10;3.25;;;21.30;62.40;;;;;;10381710;28;20025;-55
2023/07/22 02:02:59;;;;;;;4.30;3.25;;;21.30;62.50;;;;;;10360705;28;20025;-56
2023/07/22 02:08:00;;;;;;;3.75;3.08;;;21.30;62.50;;;;;;10370470;28;20056;-56
2023/07/22 02:13:00;;;;;;;4.25;2.65;;;21.30;62.50;;;;;;10401134;28;20075;-55
2023/07/22 02:18:01;;;;;;;4.65;3.70;;;21.30;62.50;;;;;;10362023;28;20093;-56
2023/07/22 02:23:02;;;;;;;4.53;3.33;;;21.20;62.40;;;;;;10358951;28;20089;-56
2023/07/22 02:28:03;;;;;;;4.72;3.28;;;21.20;62.50;;;;;;10359821;28;20393;-56
2023/07/22 02:33:05;;;;;;;5.55;3.40;;;21.20;62.40;;;;;;10360821;28;20673;-55
2023/07/22 02:38:07;;;;;;;5.10;3.45;;;21.20;62.30;;;;;;10366756;28;20505;-55
2023/07/22 02:43:08;;;;;;;5.13;3.92;;;21.20;62.30;;;;;;10367615;28;20046;-55
2023/07/22 02:48:09;;;;;;;4.68;3.00;;;21.20;62.30;;;;;;10367763;28;20038;-54
2023/07/22 02:53:09;;;;;;;4.45;3.53;;;21.20;62.20;;;;;;10365777;28;20030;-55
2023/07/22 02:58:11;;;;;;;5.35;3.75;;;21.20;62.20;;;;;;10366976;28;20105;-55
2023/07/22 03:03:12;;;;;;;6.57;3.53;;;21.20;62.20;;;;;;10366738;28;20018;-55
2023/07/22 03:08:13;;;;;;;4.18;3.17;;;21.20;62.20;;;;;;10377670;28;20140;-56
2023/07/22 03:13:17;;;;;;;4.07;3.20;;;21.20;62.20;;;;;;10407978;28;20064;-55
2023/07/22 03:18:18;;;;;;;4.78;3.60;;;21.20;62.20;;;;;;10407351;28;20318;-55
2023/07/22 03:23:20;;;;;;;4.47;3.47;;;21.20;62.20;;;;;;10406969;28;20393;-55
2023/07/22 03:28:21;;;;;;;5.50;3.40;;;21.20;62.30;;;;;;10406639;28;20124;-55
2023/07/22 03:33:21;;;;;;;4.53;2.85;;;21.20;62.20;;;;;;10404661;28;20018;-56
2023/07/22 03:38:22;;;;;;;5.05;3.70;;;21.10;62.20;;;;;;10405184;28;20021;-56
2023/07/22 03:43:23;;;;;;;4.47;3.75;;;21.10;62.10;;;;;;10407113;28;20072;-55
2023/07/22 03:48:23;;;;;;;4.35;3.38;;;21.10;62.20;;;;;;10406811;28;20581;-57
2023/07/22 03:53:24;;;;;;;4.05;3.08;;;21.10;62.20;;;;;;10384811;28;20109;-56
2023/07/22 03:58:25;;;;;;;5.00;3.72;;;21.10;62.20;;;;;;10364802;28;20113;-53
2023/07/22 04:03:25;;;;;;;4.40;3.38;;;21.10;62.20;;;;;;10365659;28;20068;-55
2023/07/22 04:08:26;;;;;;;6.20;4.03;;;21.10;62.20;;;;;;10379089;28;20394;-56
2023/07/22 04:13:27;;;;;;;4.85;3.15;;;21.10;62.20;;;;;;10404876;28;20086;-56
2023/07/22 04:18:33;;;;;;;4.82;3.47;;;21.10;62.20;;;;;;10363939;28;20491;-55
2023/07/22 04:23:33;;;;;;;5.00;3.83;;;21.10;62.20;;;;;;10365308;28;20385;-55
2023/07/22 04:28:35;;;;;;;5.25;3.63;;;21.10;62.30;;;;;;10365018;28;20077;-55
2023/07/22 04:33:35;;;;;;;5.35;3.55;;;21.10;62.20;;;;;;10364777;28;20025;-56
2023/07/22 04:38:36;;;;;;;4.63;3.50;;;21.10;62.30;;;;;;10364323;28;20113;-56
2023/07/22 04:43:38;;;;;;;4.70;3.20;;;21.10;62.30;;;;;;10364261;28;20104;-55
2023/07/22 04:48:39;;;;;;;6.35;4.57;;;21.10;62.30;;;;;;10364176;28;20034;-57
2023/07/22 04:53:40;;;;;;;6.43;3.90;;;21.10;62.30;;;;;;10362376;28;20029;-56
2023/07/22 04:58:40;;;;;;;6.38;4.43;;;21.10;62.30;;;;;;10363155;28;20101;-57
2023/07/22 05:03:41;;;;;;;5.00;4.05;;;21.10;62.30;;;;;;10363446;28;20133;-55
2023/07/22 05:08:42;;;;;;;7.18;5.20;;;21.10;62.40;;;;;;10379455;28;20041;-56
2023/07/22 05:13:43;;;;;;;5.43;4.18;;;21.10;62.40;;;;;;10400653;28;20010;-56
2023/07/22 05:18:44;;;;;;;5.97;4.72;;;21.10;62.50;;;;;;10363128;28;20036;-56
2023/07/22 05:23:44;;;;;;;5.03;3.88;;;21.10;62.50;;;;;;10363340;28;20076;-56
2023/07/22 05:28:45;;;;;;;5.95;4.78;;;21.00;62.50;;;;;;10361734;28;20059;-55
2023/07/22 05:33:46;;;;;;;5.75;3.40;;;21.10;62.60;;;;;;10383871;28;20025;-56
2023/07/22 05:38:47;;;;;;;5.07;4.22;;;21.10;62.60;;;;;;10368127;28;20124;-56
2023/07/22 05:43:48;;;;;;;5.85;4.38;;;21.10;62.60;;;;;;10362172;28;20517;-55
2023/07/22 05:48:48;;;;;;;6.05;3.97;;;21.10;62.60;;;;;;10361898;28;20485;-56
2023/07/22 05:53:49;;;;;;;5.85;4.53;;;21.10;62.60;;;;;;10362209;28;20520;-55
2023/07/22 05:58:50;;;;;;;6.78;4.40;;;21.10;62.70;;;;;;10362133;28;20165;-55
2023/07/22 06:03:51;;;;;;;6.20;4.32;;;21.10;62.70;;;;;;10362450;28;20018;-56
2023/07/22 06:08:52;;;;;;;6.78;4.82;;;21.10;62.70;;;;;;10381395;28;20037;-55
2023/07/22 06:13:52;;;;;;;5.43;4.28;;;21.10;62.70;;;;;;10404745;28;20104;-56
2023/07/22 06:18:53;;;;;;;6.18;3.95;;;21.10;62.70;;;;;;10370184;28;20554;-54
2023/07/22 06:23:54;;;;;;;6.97;4.43;;;21.10;62.60;;;;;;10369999;28;20209;-55
2023/07/22 06:28:54;;;;;;;6.15;4.32;;;21.10;62.60;;;;;;10369504;28;20083;-55
2023/07/22 06:33:55;;;;;;;6.38;4.00;;;21.10;62.70;;;;;;10369344;28;20057;-56
2023/07/22 06:38:56;;;;;;;4.97;3.67;;;21.10;62.70;;;;;;10368756;28;20049;-56
2023/07/22 06:43:57;;;;;;;6.35;4.43;;;21.10;62.60;;;;;;10368533;28;20137;-57
2023/07/22 06:48:58;;;;;;;5.45;4.13;;;21.10;62.60;;;;;;10368945;28;20116;-56
2023/07/22 06:53:59;;;;;;;6.40;4.22;;;21.20;62.70;;;;;;10368140;28;20022;-56
2023/07/22 06:59:00;;;;;;;5.05;3.83;;;21.20;62.70;;;;;;10368587;28;20475;-56
2023/07/22 07:04:00;;;;;;;6.25;4.53;;;21.20;62.80;;;;;;10368514;28;20028;-55
2023/07/22 07:09:01;;;;;;;6.13;4.25;;;21.20;62.70;;;;;;10386365;28;20080;-55
2023/07/22 07:14:03;;;;;;;6.25;4.30;;;21.20;62.70;;;;;;10402506;28;20034;-55
2023/07/22 07:19:04;;;;;;;5.90;4.85;;;21.20;62.70;;;;;;10367527;28;20030;-56
2023/07/22 07:24:05;;;;;;;6.13;4.53;;;21.20;62.70;;;;;;10367513;28;20021;-55
2023/07/22 07:29:05;;;;;;;5.38;4.00;;;21.20;62.70;;;;;;10393408;28;20091;-55
2023/07/22 07:34:06;;;;;;;5.95;4.20;;;21.20;62.70;;;;;;10366717;28;20097;-55
2023/07/22 07:39:07;;;;;;;5.60;4.20;;;21.30;62.80;;;;;;10366435;28;20067;-56
2023/07/22 07:44:08;;;;;;;6.30;4.93;;;21.20;62.80;;;;;;10365168;28;20413;-56
2023/07/22 07:49:08;;;;;;;6.13;4.53;;;21.30;62.80;;;;;;10366113;28;20040;-55
2023/07/22 07:54:12;;;;;;;5.88;4.55;;;21.30;62.80;;;;;;10365980;28;20105;-57
2023/07/22 07:59:13;;;;;;;6.78;5.28;;;21.30;62.60;;;;;;10366069;28;20029;-55
2023/07/22 08:04:14;;;;;;;6.82;4.72;;;21.30;62.60;;;;;;10365926;28;20511;-55
2023/07/22 08:09:19;;;;;;;5.03;3.92;;;21.30;62.70;;;;;;10385618;28;20732;-56
2023/07/22 08:14:20;;;;;;;6.07;4.15;;;21.30;62.70;;;;;;10392943;28;20022;-55
2023/07/22 08:19:20;;;;;;;5.82;3.83;;;21.40;62.70;;;;;;10370141;28;20085;-56
2023/07/22 08:24:21;;;;;;;5.00;4.00;;;21.40;62.70;;;;;;10364964;28;20014;-56
2023/07/22 08:29:22;;;;;;;6.05;4.28;;;21.30;62.70;;;;;;10364859;28;20073;-56
2023/07/22 08:34:23;;;;;;;6.50;3.60;;;21.30;62.80;;;;;;10363773;28;20435;-55
2023/07/22 08:39:23;;;;;;;5.72;4.57;;;21.40;62.80;;;;;;10364162;28;20069;-55
2023/07/22 08:44:29;;;;;;;4.78;3.75;;;21.40;62.80;;;;;;10364330;28;20469;-55
2023/07/22 08:49:31;;;;;;;4.57;3.70;;;21.40;62.80;;;;;;10376224;28;20041;-55
2023/07/22 08:54:32;;;;;;;6.38;4.40;;;21.40;62.70;;;;;;10362282;28;20207;-55
2023/07/22 08:59:33;;;;;;;8.15;4.15;;;21.40;62.80;;;;;;10362700;28;20029;-56
2023/07/22 09:04:34;;;;;;;6.90;4.10;;;21.40;62.70;;;;;;10363468;28;20030;-57
2023/07/22 09:09:35;;;;;;;8.70;3.67;;;21.40;62.70;;;;;;10376896;28;20033;-56
2023/07/22 09:14:38;;;;;;;5.20;4.05;;;21.40;62.80;;;;;;10374109;28;20551;-56
2023/07/22 09:19:38;;;;;;;6.28;4.70;;;21.40;62.80;;;;;;10378080;28;20076;-54
2023/07/22 09:24:39;;;;;;;6.75;4.10;;;21.40;62.80;;;;;;10362558;28;20472;-57
2023/07/22 09:29:40;;;;;;;5.35;4.15;;;21.40;62.70;;;;;;10362790;28;20531;-56
2023/07/22 09:34:55;;;;;;;6.20;3.95;;;21.40;62.70;;;;;;10345250;28;20029;-57
2023/07/22 09:39:56;;;;;;;5.25;3.85;;;21.40;62.70;;;;;;10362222;28;20096;-56
2023/07/22 09:44:57;;;;;;;5.90;4.38;;;21.40;62.60;;;;;;10375724;28;20532;-56
2023/07/22 09:49:57;;;;;;;6.72;4.40;;;21.40;62.50;;;;;;10362159;28;20385;-56
2023/07/22 09:55:01;;;;;;;5.38;4.43;;;21.50;63.00;;;;;;10362122;28;20030;-56
2023/07/22 10:00:02;;;;;;;5.65;3.90;;;21.40;62.50;;;;;;10361838;28;20034;-56
2023/07/22 10:05:04;;;;;;;4.95;4.07;;;21.50;62.60;;;;;;10361772;28;20409;-56
2023/07/22 10:10:06;;;;;;;6.25;4.90;;;21.50;62.60;;;;;;10388866;28;20116;-56
2023/07/22 10:15:09;;;;;;;5.75;4.35;;;21.50;62.40;;;;;;10386071;28;20024;-56
2023/07/22 10:20:15;;;;;;;5.30;3.88;;;21.50;62.40;;;;;;10360592;28;20030;-55
2023/07/22 10:25:20;;;;;;;4.57;3.70;;;21.50;62.50;;;;;;10361925;28;20014;-55
2023/07/22 10:30:21;;;;;;;6.65;5.15;;;21.50;62.50;;;;;;10361342;28;20377;-55
2023/07/22 10:35:40;;;;;;;5.55;4.35;;;21.50;62.50;;;;;;10361712;28;20028;-56
2023/07/22 10:40:52;;;;;;;4.60;4.00;;;21.50;62.50;;;;;;10360953;28;20302;-56
2023/07/22 10:45:55;;;;;;;5.18;4.05;;;21.50;62.60;;;;;;10361150;28;20269;-55
2023/07/22 10:51:11;;;;;;;5.22;4.05;;;21.50;62.50;;;;;;10361349;28;20687;-56
2023/07/22 10:56:24;;;;;;;5.43;3.80;;;21.50;62.50;;;;;;10363658;28;20500;-55
2023/07/22 11:01:28;;;;;;;6.15;3.67;;;21.50;62.60;;;;;;10368336;28;20033;-56
2023/07/22 11:06:29;;;;;;;7.65;4.15;;;21.40;62.50;;;;;;10367837;28;20053;-56
2023/07/22 11:11:44;;;;;;;4.53;3.25;;;21.40;62.60;;;;;;10406604;28;20535;-55
2023/07/22 11:16:46;;;;;;;6.20;4.03;;;21.40;62.70;;;;;;10378955;28;20022;-56
2023/07/22 11:21:49;;;;;;;4.30;3.33;;;21.40;62.60;;;;;;10368050;28;20026;-55
2023/07/22 11:26:51;;;;;;;4.82;3.58;;;21.40;62.60;;;;;;10366908;28;20037;-56
2023/07/22 11:31:52;;;;;;;4.60;3.60;;;21.40;62.70;;;;;;10366923;28;20058;-55
2023/07/22 11:36:55;;;;;;;4.80;3.75;;;21.40;62.80;;;;;;10366760;28;20548;-55
2023/07/22 11:41:55;;;;;;;4.15;3.15;;;21.40;62.80;;;;;;10366724;28;20671;-57
2023/07/22 11:47:05;;;;;;;4.53;3.45;;;21.30;62.80;;;;;;10366606;28;20167;-56
2023/07/22 11:52:07;;;;;;;5.60;3.75;;;21.40;62.80;;;;;;10365926;28;20449;-55
2023/07/22 11:57:11;;;;;;;4.72;3.40;;;21.40;62.80;;;;;;10365574;28;20052;-57
2023/07/22 12:02:38;;;;;;;5.70;3.30;;;21.40;62.70;;;;;;10366372;28;20405;-56
2023/07/22 12:07:39;;;;;;;4.32;3.80;;;21.40;62.60;;;;;;10371236;28;20041;-56
2023/07/22 12:12:48;;;;;;;4.03;3.08;;;21.40;62.50;;;;;;10406614;28;20091;-56
2023/07/22 12:18:01;;;;;;;5.57;3.92;;;21.40;62.50;;;;;;10369267;28;20454;-56
2023/07/22 12:23:02;;;;;;;4.40;3.08;;;21.40;62.50;;;;;;10378240;28;20013;-56
2023/07/22 12:28:03;;;;;;;4.95;3.33;;;21.40;62.50;;;;;;10365251;28;20034;-56
2023/07/22 12:33:04;;;;;;;4.97;3.35;;;21.40;62.60;;;;;;10363586;28;20059;-55
2023/07/22 12:38:04;;;;;;;4.50;3.15;;;21.40;62.70;;;;;;10364285;28;20030;-56
2023/07/22 12:43:05;;;;;;;6.18;3.47;;;21.40;62.80;;;;;;10377296;28;20077;-57
2023/07/22 12:48:06;;;;;;;4.15;3.33;;;21.30;62.80;;;;;;10364009;28;20124;-56
2023/07/22 12:53:08;;;;;;;3.58;2.78;;;21.30;62.90;;;;;;10363620;28;20473;-56
2023/07/22 12:58:09;;;;;;;3.83;2.80;;;21.30;62.90;;;;;;10363979;28;20026;-55
2023/07/22 13:03:09;;;;;;;3.88;3.25;;;21.30;63.00;;;;;;10364050;28;20030;-57
2023/07/22 13:08:10;;;;;;;4.40;3.20;;;21.30;63.00;;;;;;10373373;28;20090;-57
2023/07/22 13:13:11;;;;;;;4.22;2.92;;;21.40;63.00;;;;;;10404193;28;20056;-56
2023/07/22 13:18:13;;;;;;;3.55;2.75;;;21.40;62.90;;;;;;10363234;28;20478;-56
2023/07/22 13:23:14;;;;;;;4.47;2.80;;;21.40;62.90;;;;;;10362797;28;20030;-55
2023/07/22 13:28:14;;;;;;;4.50;3.40;;;21.40;62.90;;;;;;10361439;28;20083;-56
2023/07/22 13:33:15;;;;;;;4.05;2.95;;;21.40;62.80;;;;;;10363080;28;21083;-56
2023/07/22 13:38:16;;;;;;;3.38;2.80;;;21.40;62.90;;;;;;10362567;28;20549;-57
2023/07/22 13:43:16;;;;;;;4.53;3.20;;;21.40;62.90;;;;;;10363288;28;20080;-55
2023/07/22 13:48:17;;;;;;;4.55;3.28;;;21.40;63.00;;;;;;10361032;28;20146;-57
2023/07/22 13:53:18;;;;;;;4.78;3.17;;;21.40;63.10;;;;;;10361015;28;20529;-56
2023/07/22 13:58:18;;;;;;;4.82;3.63;;;21.40;63.10;;;;;;10385724;28;20113;-55
2023/07/22 14:03:19;;;;;;;4.00;2.90;;;21.40;63.20;;;;;;10364719;28;20065;-56
2023/07/22 14:08:20;;;;;;;4.38;2.97;;;21.40;63.20;;;;;;10372880;28;20048;-56
2023/07/22 14:13:20;;;;;;;3.53;2.80;;;21.40;63.30;;;;;;10362815;28;20018;-56
2023/07/22 14:18:21;;;;;;;4.45;2.75;;;21.30;63.30;;;;;;10374565;28;20277;-56
2023/07/22 14:23:21;;;;;;;4.05;2.80;;;21.30;63.30;;;;;;10361760;28;20109;-57
2023/07/22 14:28:23;;;;;;;3.40;2.47;;;21.30;63.30;;;;;;10361237;28;20121;-56
2023/07/22 14:33:24;;;;;;;3.15;2.65;;;21.30;63.30;;;;;;10367801;28;20416;-55
2023/07/22 14:38:25;;;;;;;3.83;2.80;;;21.30;63.30;;;;;;10369026;28;20485;-56
2023/07/22 14:43:26;;;;;;;4.53;2.90;;;21.30;63.20;;;;;;10368948;28;20068;-55
2023/07/22 14:48:26;;;;;;;4.13;2.75;;;21.40;63.20;;;;;;10390256;28;20108;-56
2023/07/22 14:53:27;;;;;;;3.45;2.35;;;21.40;63.10;;;;;;10374006;28;21362;-55
2023/07/22 14:58:28;;;;;;;3.40;2.47;;;21.40;63.20;;;;;;10368504;28;20541;-56
2023/07/22 15:03:29;;;;;;;4.38;3.22;;;21.40;63.10;;;;;;10368032;28;20473;-56
2023/07/22 15:08:29;;;;;;;3.15;2.50;;;21.40;63.10;;;;;;10380427;28;20068;-56
2023/07/22 15:13:30;;;;;;;4.07;2.60;;;21.40;63.10;;;;;;10405508;28;20631;-55
2023/07/22 15:18:31;;;;;;;3.40;2.45;;;21.40;63.10;;;;;;10365884;28;20022;-55
2023/07/22 15:23:32;;;;;;;3.38;2.40;;;21.40;63.10;;;;;;10367555;28;20102;-56
2023/07/22 15:28:32;;;;;;;3.28;2.33;;;21.40;63.10;;;;;;10367331;28;20591;-56
2023/07/22 15:33:35;;;;;;;4.95;3.13;;;21.40;63.10;;;;;;10367507;28;20014;-56
2023/07/22 15:38:36;;;;;;;3.28;2.75;;;21.40;63.20;;;;;;10366923;28;20508;-56
2023/07/22 15:43:37;;;;;;;2.97;2.13;;;21.40;63.80;;;;;;10379525;28;20077;-56
2023/07/22 15:48:37;;;;;;;3.08;2.38;;;21.40;63.30;;;;;;10366145;28;20373;-56
2023/07/22 15:53:39;;;;;;;4.15;2.70;;;21.30;63.30;;;;;;10365379;28;20067;-56
2023/07/22 15:58:39;;;;;;;2.85;2.25;;;21.30;63.30;;;;;;10366027;28;20022;-56
2023/07/22 16:03:40;;;;;;;2.90;2.20;;;21.30;63.30;;;;;;10365612;28;20467;-56
2023/07/22 16:08:40;;;;;;;3.60;2.40;;;21.30;63.30;;;;;;10381084;28;20035;-56
2023/07/22 16:13:41;;;;;;;2.80;2.13;;;21.30;63.30;;;;;;10401679;28;20046;-55
2023/07/22 16:18:42;;;;;;;2.75;1.90;;;21.30;63.30;;;;;;10365684;28;20026;-56
2023/07/22 16:23:42;;;;;;;3.30;2.42;;;21.30;63.30;;;;;;10365317;28;20113;-56
2023/07/22 16:28:44;;;;;;;2.97;2.40;;;21.30;63.30;;;;;;10365181;28;20041;-56
2023/07/22 16:33:44;;;;;;;2.70;2.00;;;21.30;63.30;;;;;;10364433;28;20022;-54
2023/07/22 16:38:45;;;;;;;3.72;2.20;;;21.30;63.40;;;;;;10364869;28;20018;-55
2023/07/22 16:43:46;;;;;;;3.03;2.28;;;21.30;63.40;;;;;;10390514;28;20064;-56
2023/07/22 16:48:46;;;;;;;3.47;2.45;;;21.30;63.40;;;;;;10364304;28;20030;-56
2023/07/22 16:53:47;;;;;;;3.22;2.53;;;21.30;63.40;;;;;;10362109;28;20097;-55
2023/07/22 16:58:49;;;;;;;2.95;2.20;;;21.30;63.40;;;;;;10363563;28;20061;-57
2023/07/22 17:03:49;;;;;;;2.95;2.13;;;21.30;63.40;;;;;;10364091;28;20060;-54
2023/07/22 17:08:50;;;;;;;2.88;2.00;;;21.30;63.40;;;;;;10378560;28;20033;-56
2023/07/22 17:13:51;;;;;;;3.70;1.85;;;21.30;63.40;;;;;;10404130;28;20083;-56
2023/07/22 17:18:51;;;;;;;2.95;2.20;;;21.20;63.40;;;;;;10404095;28;20107;-55
2023/07/22 17:23:52;;;;;;;4.63;2.35;;;21.30;63.50;;;;;;10404192;28;20533;-57
2023/07/22 17:28:53;;;;;;;3.42;1.90;;;21.30;63.50;;;;;;10404156;28;20108;-56
2023/07/22 17:33:53;;;;;;;3.00;2.20;;;21.30;63.60;;;;;;10403769;28;20112;-56
2023/07/22 17:38:54;;;;;;;3.00;2.17;;;21.20;63.50;;;;;;10393515;28;20025;-56
2023/07/22 17:43:55;;;;;;;3.38;2.10;;;21.20;63.40;;;;;;10361168;28;20136;-57
2023/07/22 17:48:55;;;;;;;2.78;2.08;;;21.20;63.40;;;;;;10363370;28;20125;-56
2023/07/22 17:53:56;;;;;;;2.45;1.63;;;21.20;63.40;;;;;;10344805;28;20280;-55
2023/07/22 17:58:56;;;;;;;3.00;2.35;;;21.20;63.40;;;;;;10362223;28;20109;-56
2023/07/22 18:03:57;;;;;;;2.63;1.73;;;21.20;63.40;;;;;;10362678;28;20595;-57
2023/07/22 18:08:58;;;;;;;2.80;2.17;;;21.20;64.00;;;;;;10386376;28;20026;-55
2023/07/22 18:13:59;;;;;;;3.40;2.60;;;21.20;63.50;;;;;;10405320;28;20079;-55
2023/07/22 18:18:59;;;;;;;2.60;1.77;;;21.20;63.60;;;;;;10369922;28;20030;-56
2023/07/22 18:24:00;;;;;;;3.25;2.15;;;21.20;63.60;;;;;;10370218;28;20106;-55
2023/07/22 18:29:01;;;;;;;2.47;1.85;;;21.20;63.60;;;;;;10369654;28;20134;-55
2023/07/22 18:34:01;;;;;;;3.13;2.00;;;21.20;63.50;;;;;;10380050;28;20026;-56
2023/07/22 18:39:03;;;;;;;3.08;2.30;;;21.20;63.60;;;;;;10385557;28;20109;-56
2023/07/22 18:44:04;;;;;;;4.50;2.38;;;21.20;63.60;;;;;;10369751;28;20145;-55
2023/07/22 18:49:05;;;;;;;3.60;2.83;;;21.20;63.60;;;;;;10369187;28;20032;-56
2023/07/22 18:54:05;;;;;;;2.88;2.28;;;21.20;63.60;;;;;;10368743;28;20040;-55
2023/07/22 18:59:06;;;;;;;2.97;1.60;;;21.20;63.60;;;;;;10368166;28;20496;-55
2023/07/22 19:04:06;;;;;;;3.25;1.98;;;21.10;63.70;;;;;;10367977;28;20109;-56
2023/07/22 19:09:07;;;;;;;2.33;1.85;;;21.10;63.80;;;;;;10386806;28;20132;-56
2023/07/22 19:14:08;;;;;;;2.72;1.80;;;21.20;63.90;;;;;;10400509;28;20018;-56
2023/07/22 19:19:08;;;;;;;2.50;1.85;;;21.10;63.80;;;;;;10367016;28;20117;-56
2023/07/22 19:24:09;;;;;;;6.43;2.17;;;21.10;63.70;;;;;;10367482;28;20157;-55
2023/07/22 19:29:10;;;;;;;2.63;2.00;;;21.10;63.80;;;;;;10367339;28;20040;-56
2023/07/22 19:34:13;;;;;;;2.53;1.88;;;21.10;63.80;;;;;;10367501;28;20427;-56
2023/07/22 19:39:14;;;;;;;2.80;2.17;;;21.10;63.70;;;;;;10367134;28;20033;-55
2023/07/22 19:44:15;;;;;;;3.05;2.00;;;21.10;63.70;;;;;;10366831;28;20041;-55
2023/07/22 19:49:16;;;;;;;3.55;2.25;;;21.10;63.80;;;;;;10365272;28;20120;-56
2023/07/22 19:54:16;;;;;;;2.42;1.65;;;21.10;63.70;;;;;;10366643;28;20836;-55
2023/07/22 19:59:17;;;;;;;2.60;1.75;;;21.10;63.80;;;;;;10365971;28;20032;-57
2023/07/22 20:04:17;;;;;;;3.15;1.88;;;21.10;63.80;;;;;;10365665;28;20117;-56
2023/07/22 20:09:18;;;;;;;2.53;1.77;;;21.10;63.80;;;;;;10386289;28;20034;-56
2023/07/22 20:14:19;;;;;;;2.85;1.48;;;21.10;63.80;;;;;;10396155;28;20029;-56
2023/07/22 20:19:19;;;;;;;2.75;1.70;;;21.10;63.80;;;;;;10364117;28;20029;-56
2023/07/22 20:24:20;;;;;;;2.92;1.85;;;21.10;63.80;;;;;;10364294;28;20026;-55
2023/07/22 20:29:21;;;;;;;3.53;1.92;;;21.10;63.80;;;;;;10363767;28;20120;-56
2023/07/22 20:34:21;;;;;;;4.40;2.30;;;21.10;63.80;;;;;;10363632;28;20106;-57
2023/07/22 20:39:22;;;;;;;2.70;1.70;;;21.10;63.80;;;;;;10363355;28;20062;-56
2023/07/22 20:44:23;;;;;;;2.60;1.80;;;21.00;63.80;;;;;;10363631;28;20025;-56
2023/07/22 20:49:23;;;;;;;2.85;1.90;;;21.00;63.80;;;;;;10362889;28;20068;-55
2023/07/22 20:54:24;;;;;;;2.15;1.38;;;21.00;63.90;;;;;;10362853;28;20113;-56
2023/07/22 20:59:25;;;;;;;2.92;2.40;;;21.00;63.90;;;;;;10362450;28;20061;-55
2023/07/22 21:04:25;;;;;;;2.95;1.70;;;21.00;63.90;;;;;;10362309;28;20034;-55
2023/07/22 21:09:26;;;;;;;2.15;1.50;;;21.00;63.90;;;;;;10383723;28;20072;-55
2023/07/22 21:14:27;;;;;;;2.45;1.70;;;21.00;63.90;;;;;;10392347;28;20018;-55
2023/07/22 21:19:28;;;;;;;3.20;2.08;;;21.00;63.90;;;;;;10362664;28;20169;-55
2023/07/22 21:24:29;;;;;;;2.10;1.90;;;21.00;63.90;;;;;;10362361;28;20249;-55
2023/07/22 21:29:31;;;;;;;2.40;1.30;;;21.00;63.90;;;;;;10360243;28;20034;-56
2023/07/22 21:34:32;;;;;;;2.35;1.75;;;21.00;63.90;;;;;;10361721;28;20029;-55
2023/07/22 21:39:32;;;;;;;2.42;1.60;;;21.00;63.90;;;;;;10360778;28;20457;-55
2023/07/22 21:44:33;;;;;;;2.72;1.90;;;21.00;63.90;;;;;;10361434;28;20112;-55
2023/07/22 21:49:34;;;;;;;3.25;2.00;;;21.00;64.00;;;;;;10361006;28;20120;-56
2023/07/22 21:54:34;;;;;;;2.72;1.95;;;21.00;63.90;;;;;;10359598;28;20045;-56
2023/07/22 21:59:35;;;;;;;3.42;2.03;;;21.00;64.00;;;;;;10360973;28;20064;-55
2023/07/22 22:04:36;;;;;;;2.50;1.90;;;21.00;64.00;;;;;;10361610;28;20338;-55
2023/07/22 22:09:36;;;;;;;3.38;2.50;;;21.00;64.00;;;;;;10383369;28;20116;-56
2023/07/22 22:14:37;;;;;;;2.33;1.75;;;21.00;64.00;;;;;;10390352;28;20109;-56
2023/07/22 22:19:38;;;;;;;3.85;2.47;;;20.90;63.90;;;;;;10360946;28;20125;-54
2023/07/22 22:24:39;;;;;;;3.22;1.85;;;21.00;64.00;;;;;;10360526;28;20030;-55
2023/07/22 22:29:39;;;;;;;3.53;2.05;;;21.00;64.00;;;;;;10360163;28;20506;-57
2023/07/22 22:34:40;;;;;;;16.92;3.00;;;20.90;64.00;;;;;;10360426;28;20018;-56
2023/07/22 22:39:40;;;;;;;2.50;1.50;;;20.90;64.00;;;;;;10358910;28;20100;-56
2023/07/22 22:44:41;;;;;;;2.92;1.73;;;20.90;64.00;;;;;;10360248;28;20029;-56
2023/07/22 22:49:42;;;;;;;2.97;2.03;;;20.90;64.00;;;;;;10359909;28;20113;-56
2023/07/22 22:54:43;;;;;;;3.00;1.85;;;20.90;64.00;;;;;;10366212;28;20036;-55
2023/07/22 22:59:44;;;;;;;3.38;1.77;;;20.90;64.00;;;;;;10367755;28;20118;-55
2023/07/22 23:04:45;;;;;;;2.92;2.05;;;20.90;63.90;;;;;;10366647;28;20036;-56
2023/07/22 23:09:45;;;;;;;3.45;2.08;;;20.90;64.10;;;;;;10391489;28;20540;-56
2023/07/22 23:14:48;;;;;;;2.95;1.90;;;20.90;64.00;;;;;;10395156;28;20018;-56
2023/07/22 23:19:49;;;;;;;3.92;2.03;;;20.90;64.00;;;;;;10367001;28;20042;-55
2023/07/22 23:24:50;;;;;;;2.65;1.50;;;20.90;64.00;;;;;;10366720;28;20460;-56
2023/07/22 23:29:51;;;;;;;2.97;1.80;;;20.90;64.10;;;;;;10366238;28;20049;-56
2023/07/22 23:34:57;;;;;;;3.75;2.20;;;20.90;64.10;;;;;;10366028;28;20022;-56
2023/07/22 23:39:57;;;;;;;3.47;2.15;;;20.90;64.10;;;;;;10366040;28;20065;-56
2023/07/22 23:44:58;;;;;;;2.35;1.83;;;20.90;64.10;;;;;;10365539;28;20509;-56
2023/07/22 23:50:00;;;;;;;3.63;1.85;;;20.90;64.10;;;;;;10365562;28;20081;-56
2023/07/22 23:55:01;;;;;;;2.83;1.98;;;20.90;64.00;;;;;;10365510;28;20113;-55
